createdAt,value
2023-04-22T00:02:16.325Z,8.20
2023-04-22T00:04:45.567Z,7.90
2023-04-22T00:07:13.928Z,8.00
2023-04-22T00:09:41.587Z,7.80
2023-04-22T00:12:08.526Z,7.10
2023-04-22T00:14:36.286Z,7.80
2023-04-22T00:17:02.948Z,6.80
2023-04-22T00:19:31.447Z,7.40
2023-04-22T00:21:58.100Z,6.90
2023-04-22T00:24:24.744Z,7.40
2023-04-22T00:26:51.392Z,7.40
2023-04-22T00:29:17.979Z,7.80
2023-04-22T00:31:44.827Z,7.40
2023-04-22T00:34:11.525Z,7.50
2023-04-22T00:36:38.147Z,7.30
2023-04-22T00:39:05.841Z,7.90
2023-04-22T00:41:33.620Z,7.50
2023-04-22T00:44:00.275Z,8.40
2023-04-22T00:46:27.267Z,8.20
2023-04-22T00:48:53.985Z,8.40
2023-04-22T00:51:20.625Z,8.70
2023-04-22T00:53:47.237Z,7.90
2023-04-22T00:56:13.848Z,7.60
2023-04-22T00:58:40.506Z,7.10
2023-04-22T01:01:07.165Z,7.30
2023-04-22T01:03:33.994Z,7.20
2023-04-22T01:06:00.904Z,7.70
2023-04-22T01:08:29.134Z,7.40
2023-04-22T01:10:57.000Z,7.40
2023-04-22T01:13:23.773Z,7.30
2023-04-22T01:15:51.611Z,7.50
2023-04-22T01:18:18.265Z,8.00
2023-04-22T01:20:45.231Z,7.10
2023-04-22T01:23:21.475Z,6.60
2023-04-22T01:25:48.316Z,7.40
2023-04-22T01:28:15.531Z,7.10
2023-04-22T01:30:42.649Z,6.80
2023-04-22T01:33:10.129Z,7.40
2023-04-22T01:35:37.242Z,7.10
2023-04-22T01:38:05.287Z,7.00
2023-04-22T01:40:32.869Z,7.40
2023-04-22T01:43:00.173Z,7.40
2023-04-22T01:45:27.256Z,6.40
2023-04-22T01:47:53.994Z,6.50
2023-04-22T01:50:20.990Z,6.70
2023-04-22T01:52:47.809Z,6.70
2023-04-22T01:55:14.901Z,6.40
2023-04-22T01:57:43.462Z,6.60
2023-04-22T02:00:10.833Z,6.70
2023-04-22T02:02:42.707Z,6.30
2023-04-22T02:05:09.740Z,6.10
2023-04-22T02:07:37.526Z,6.70
2023-04-22T02:10:05.228Z,5.80
2023-04-22T02:12:32.379Z,6.60
2023-04-22T02:14:59.042Z,6.00
2023-04-22T02:17:26.611Z,6.40
2023-04-22T02:19:53.299Z,6.10
2023-04-22T02:22:20.208Z,6.40
2023-04-22T02:24:50.741Z,6.00
2023-04-22T02:27:17.450Z,6.30
2023-04-22T02:29:45.534Z,6.30
2023-04-22T02:32:12.503Z,6.30
2023-04-22T02:34:39.565Z,6.40
2023-04-22T02:37:06.277Z,6.70
2023-04-22T02:39:34.179Z,6.10
2023-04-22T02:42:01.273Z,5.70
2023-04-22T02:44:28.100Z,6.40
2023-04-22T02:46:55.101Z,6.20
2023-04-22T02:49:21.924Z,6.20
2023-04-22T02:51:48.802Z,5.80
2023-04-22T02:54:15.446Z,6.80
2023-04-22T02:56:42.155Z,6.20
2023-04-22T02:59:08.814Z,6.50
2023-04-22T03:01:35.954Z,6.40
2023-04-22T03:04:03.579Z,6.00
2023-04-22T03:06:30.539Z,6.50
2023-04-22T03:08:57.672Z,6.10
2023-04-22T03:11:24.304Z,6.60
2023-04-22T03:13:51.131Z,6.20
2023-04-22T03:16:17.838Z,6.00
2023-04-22T03:18:44.855Z,6.40
2023-04-22T03:21:11.501Z,6.30
2023-04-22T03:23:40.376Z,6.20
2023-04-22T03:26:07.559Z,6.00
2023-04-22T03:28:34.343Z,6.60
2023-04-22T03:31:03.422Z,6.10
2023-04-22T03:33:30.734Z,6.80
2023-04-22T03:36:03.690Z,6.90
2023-04-22T03:38:30.670Z,5.80
2023-04-22T03:40:57.270Z,6.10
2023-04-22T03:43:36.672Z,5.70
2023-04-22T03:46:06.747Z,6.60
2023-04-22T03:48:35.728Z,6.00
2023-04-22T03:51:05.616Z,6.10
2023-04-22T03:53:34.311Z,6.00
2023-04-22T03:56:00.896Z,6.50
2023-04-22T03:58:27.586Z,5.70
2023-04-22T04:00:54.877Z,6.50
2023-04-22T04:03:21.714Z,6.70
2023-04-22T04:05:50.714Z,5.90
2023-04-22T04:08:18.469Z,5.50
2023-04-22T04:10:46.696Z,5.80
2023-04-22T04:13:13.602Z,6.10
2023-04-22T04:15:48.437Z,5.90
2023-04-22T04:18:15.833Z,5.90
2023-04-22T04:20:42.766Z,6.00
2023-04-22T04:23:09.659Z,6.10
2023-04-22T04:25:39.225Z,6.20
2023-04-22T04:28:10.529Z,6.10
2023-04-22T04:30:37.515Z,6.00
2023-04-22T04:33:06.366Z,6.00
2023-04-22T04:35:34.732Z,6.50
2023-04-22T04:38:01.722Z,6.20
2023-04-22T04:40:29.436Z,5.40
2023-04-22T04:43:09.053Z,5.70
2023-04-22T04:45:48.166Z,5.80
2023-04-22T04:48:16.072Z,5.80
2023-04-22T04:50:47.640Z,5.70
2023-04-22T04:53:14.379Z,6.00
2023-04-22T04:55:41.570Z,5.90
2023-04-22T04:58:14.934Z,5.70
2023-04-22T05:00:41.901Z,5.90
2023-04-22T05:03:09.608Z,6.50
2023-04-22T05:05:36.469Z,6.00
2023-04-22T05:08:03.115Z,6.00
2023-04-22T05:10:30.309Z,6.00
2023-04-22T05:12:57.080Z,6.60
2023-04-22T05:15:24.133Z,6.20
2023-04-22T05:17:51.478Z,6.30
2023-04-22T05:20:18.247Z,6.00
2023-04-22T05:22:45.335Z,6.40
2023-04-22T05:25:12.358Z,6.00
2023-04-22T05:27:42.445Z,6.10
2023-04-22T05:30:10.356Z,6.50
2023-04-22T05:32:38.502Z,6.50
2023-04-22T05:35:06.424Z,6.80
2023-04-22T05:37:33.275Z,6.70
2023-04-22T05:40:00.567Z,6.80
2023-04-22T05:42:27.353Z,6.40
2023-04-22T05:44:54.192Z,6.50
2023-04-22T05:47:20.864Z,7.20
2023-04-22T05:49:47.593Z,7.10
2023-04-22T05:52:18.166Z,6.80
2023-04-22T05:54:57.675Z,7.20
2023-04-22T05:57:24.326Z,7.00
2023-04-22T05:59:51.017Z,7.00
2023-04-22T06:02:18.244Z,7.20
2023-04-22T06:04:46.117Z,7.50
2023-04-22T06:07:13.691Z,7.50
2023-04-22T06:09:40.727Z,8.00
2023-04-22T06:12:10.260Z,7.70
2023-04-22T06:14:37.738Z,7.40
2023-04-22T06:17:04.653Z,7.80
2023-04-22T06:19:31.236Z,7.10
2023-04-22T06:21:59.901Z,7.10
2023-04-22T06:24:26.561Z,6.70
2023-04-22T06:26:54.460Z,7.80
2023-04-22T06:29:21.393Z,6.70
2023-04-22T06:31:48.181Z,7.60
2023-04-22T06:34:14.981Z,8.40
2023-04-22T06:36:43.925Z,7.60
2023-04-22T06:39:11.058Z,7.30
2023-04-22T06:41:57.990Z,8.10
2023-04-22T06:44:47.984Z,8.00
2023-04-22T06:47:25.483Z,7.90
2023-04-22T06:49:58.858Z,7.70
2023-04-22T06:52:34.137Z,7.70
2023-04-22T06:55:05.805Z,7.40
2023-04-22T06:57:32.505Z,7.90
2023-04-22T06:59:59.263Z,7.70
2023-04-22T07:02:26.931Z,7.90
2023-04-22T07:04:53.605Z,7.10
2023-04-22T07:07:20.254Z,7.40
2023-04-22T07:09:47.032Z,7.80
2023-04-22T07:12:14.337Z,7.90
2023-04-22T07:14:44.444Z,7.70
2023-04-22T07:17:11.710Z,7.00
2023-04-22T07:19:38.646Z,7.50
2023-04-22T07:22:06.370Z,7.50
2023-04-22T07:24:33.045Z,7.40
2023-04-22T07:27:00.892Z,7.30
2023-04-22T07:29:27.579Z,7.50
2023-04-22T07:31:54.224Z,7.30
2023-04-22T07:34:20.976Z,7.40
2023-04-22T07:36:50.482Z,7.60
2023-04-22T07:39:17.194Z,7.20
2023-04-22T07:41:43.975Z,7.60
2023-04-22T07:44:12.468Z,7.10
2023-04-22T07:46:39.290Z,7.10
2023-04-22T07:49:05.868Z,7.60
2023-04-22T07:51:33.527Z,7.40
2023-04-22T07:54:00.197Z,7.50
2023-04-22T07:56:26.803Z,7.50
2023-04-22T07:58:53.898Z,7.10
2023-04-22T08:01:20.741Z,7.10
2023-04-22T08:03:47.723Z,7.30
2023-04-22T08:06:14.633Z,7.40
2023-04-22T08:08:41.432Z,7.10
2023-04-22T08:11:08.036Z,7.30
2023-04-22T08:13:35.082Z,7.00
2023-04-22T08:16:06.281Z,7.20
2023-04-22T08:18:33.007Z,7.40
2023-04-22T08:21:00.029Z,7.50
2023-04-22T08:23:26.690Z,7.30
2023-04-22T08:25:53.346Z,6.90
2023-04-22T08:28:19.912Z,7.00
2023-04-22T08:30:46.591Z,7.30
2023-04-22T08:33:13.177Z,7.10
2023-04-22T08:35:39.780Z,6.60
2023-04-22T08:38:06.448Z,6.50
2023-04-22T08:40:34.325Z,6.40
2023-04-22T08:43:01.119Z,6.40
2023-04-22T08:45:27.772Z,5.80
2023-04-22T08:47:54.668Z,5.00
2023-04-22T08:50:25.714Z,5.00
2023-04-22T08:52:52.755Z,5.30
2023-04-22T08:55:19.868Z,5.60
2023-04-22T08:57:46.867Z,5.20
2023-04-22T09:00:14.562Z,5.00
2023-04-22T09:02:44.268Z,5.00
2023-04-22T09:05:11.004Z,4.70
2023-04-22T09:07:37.868Z,4.80
2023-04-22T09:10:04.935Z,5.00
2023-04-22T09:12:32.005Z,5.30
2023-04-22T09:14:58.750Z,5.10
2023-04-22T09:17:32.820Z,5.00
2023-04-22T09:20:00.768Z,5.30
2023-04-22T09:22:28.093Z,5.50
2023-04-22T09:24:54.891Z,4.90
2023-04-22T09:27:23.899Z,5.20
2023-04-22T09:29:52.269Z,5.20
2023-04-22T09:32:18.921Z,5.10
2023-04-22T09:34:50.474Z,4.60
2023-04-22T09:37:23.373Z,5.50
2023-04-22T09:39:50.072Z,5.60
2023-04-22T09:42:17.510Z,5.60
2023-04-22T09:44:48.470Z,6.10
2023-04-22T09:47:15.057Z,6.60
2023-04-22T09:49:46.328Z,6.00
2023-04-22T09:52:28.913Z,5.70
2023-04-22T09:54:55.571Z,5.70
2023-04-22T09:57:22.211Z,5.90
2023-04-22T09:59:52.564Z,5.90
2023-04-22T10:02:19.410Z,5.20
2023-04-22T10:04:46.938Z,6.10
2023-04-22T10:07:14.501Z,5.60
2023-04-22T10:09:41.387Z,5.60
2023-04-22T10:12:08.374Z,5.30
2023-04-22T10:14:35.629Z,5.50
2023-04-22T10:17:02.930Z,5.20
2023-04-22T10:19:29.817Z,5.10
2023-04-22T10:21:58.874Z,5.00
2023-04-22T10:24:27.299Z,5.00
2023-04-22T10:26:57.122Z,5.30
2023-04-22T10:29:25.500Z,5.10
2023-04-22T10:32:03.687Z,4.70
2023-04-22T10:34:34.096Z,4.90
2023-04-22T10:37:11.474Z,5.00
2023-04-22T10:39:40.601Z,4.70
2023-04-22T10:42:12.550Z,4.70
2023-04-22T10:44:46.857Z,4.80
2023-04-22T10:47:42.086Z,5.00
2023-04-22T10:50:09.668Z,4.90
2023-04-22T10:52:36.778Z,5.40
2023-04-22T10:55:03.852Z,5.40
2023-04-22T10:57:47.190Z,6.10
2023-04-22T11:00:30.945Z,5.40
2023-04-22T11:03:04.203Z,6.00
2023-04-22T11:05:31.783Z,6.00
2023-04-22T11:08:07.460Z,5.20
2023-04-22T11:10:44.427Z,4.70
2023-04-22T11:13:13.910Z,5.20
2023-04-22T11:15:41.915Z,5.70
2023-04-22T11:18:25.657Z,4.80
2023-04-22T11:20:53.090Z,5.40
2023-04-22T11:23:23.762Z,5.40
2023-04-22T11:26:00.750Z,4.70
2023-04-22T11:28:27.907Z,4.60
2023-04-22T11:31:02.076Z,5.30
2023-04-22T11:33:29.038Z,5.40
2023-04-22T11:35:57.330Z,5.90
2023-04-22T11:38:23.975Z,5.40
2023-04-22T11:40:50.677Z,4.80
2023-04-22T11:43:18.018Z,4.80
2023-04-22T11:45:44.704Z,4.70
2023-04-22T11:48:11.652Z,5.50
2023-04-22T11:50:40.507Z,5.50
2023-04-22T11:53:14.285Z,5.90
2023-04-22T11:55:41.652Z,5.00
2023-04-22T11:58:15.973Z,5.00
2023-04-22T12:00:47.352Z,4.70
2023-04-22T12:03:22.498Z,4.50
2023-04-22T12:06:00.171Z,5.30
2023-04-22T12:08:31.005Z,5.20
2023-04-22T12:10:59.755Z,5.00
2023-04-22T12:13:30.155Z,4.40
2023-04-22T12:16:02.095Z,5.20
2023-04-22T12:18:32.620Z,5.70
2023-04-22T12:21:00.849Z,5.00
2023-04-22T12:23:27.998Z,4.30
2023-04-22T12:25:54.745Z,4.90
2023-04-22T12:28:21.716Z,5.30
2023-04-22T12:30:48.561Z,4.30
2023-04-22T12:33:15.764Z,5.50
2023-04-22T12:35:42.668Z,4.80
2023-04-22T12:38:09.286Z,4.10
2023-04-22T12:40:36.299Z,3.90
2023-04-22T12:43:05.288Z,4.00
2023-04-22T12:45:32.571Z,3.80
2023-04-22T12:47:59.244Z,3.50
2023-04-22T12:50:26.198Z,3.70
2023-04-22T12:52:52.932Z,4.00
2023-04-22T12:55:20.459Z,4.00
2023-04-22T12:57:48.325Z,3.80
2023-04-22T13:00:15.676Z,4.00
2023-04-22T13:02:46.692Z,3.50
2023-04-22T13:05:13.981Z,4.20
2023-04-22T13:07:41.338Z,3.80
2023-04-22T13:10:09.582Z,3.90
2023-04-22T13:12:38.603Z,7.00
2023-04-22T13:15:06.183Z,4.70
2023-04-22T13:17:34.067Z,4.00
2023-04-22T13:20:00.817Z,3.50
2023-04-22T13:22:27.677Z,3.50
2023-04-22T13:24:54.255Z,3.70
2023-04-22T13:27:20.856Z,4.20
2023-04-22T13:29:47.680Z,3.70
2023-04-22T13:32:14.743Z,3.90
2023-04-22T13:34:41.355Z,4.30
2023-04-22T13:37:08.055Z,4.40
2023-04-22T13:39:34.723Z,4.20
2023-04-22T13:42:02.236Z,4.30
2023-04-22T13:44:29.282Z,3.50
2023-04-22T13:46:55.982Z,3.10
2023-04-22T13:49:22.645Z,2.60
2023-04-22T13:51:49.342Z,2.50
2023-04-22T13:54:15.969Z,2.60
2023-04-22T13:56:42.691Z,2.50
2023-04-22T13:59:09.321Z,3.20
2023-04-22T14:01:37.268Z,2.70
2023-04-22T14:04:03.976Z,2.50
2023-04-22T14:06:30.785Z,2.60
2023-04-22T14:08:57.483Z,2.70
2023-04-22T14:11:24.813Z,3.10
2023-04-22T14:13:51.779Z,2.80
2023-04-22T14:16:19.244Z,3.20
2023-04-22T14:18:46.465Z,2.30
2023-04-22T14:21:13.163Z,2.50
2023-04-22T14:23:40.231Z,2.10
2023-04-22T14:26:08.113Z,1.90
2023-04-22T14:28:35.785Z,2.00
2023-04-22T14:31:02.670Z,1.90
2023-04-22T14:33:29.609Z,1.90
2023-04-22T14:35:57.012Z,1.70
2023-04-22T14:38:23.973Z,1.90
2023-04-22T14:40:50.720Z,2.00
2023-04-22T14:43:17.840Z,2.10
2023-04-22T14:45:45.748Z,1.60
2023-04-22T14:48:12.684Z,1.80
2023-04-22T14:50:39.415Z,2.00
2023-04-22T14:53:06.118Z,1.50
2023-04-22T14:55:34.842Z,1.70
2023-04-22T14:58:01.573Z,1.10
2023-04-22T15:00:29.225Z,1.80
2023-04-22T15:02:56.109Z,1.50
2023-04-22T15:05:23.075Z,1.70
2023-04-22T15:07:50.773Z,4.40
2023-04-22T15:10:17.513Z,4.60
2023-04-22T15:12:44.482Z,3.50
2023-04-22T15:15:13.457Z,2.60
2023-04-22T15:17:40.609Z,1.80
2023-04-22T15:20:09.254Z,1.50
2023-04-22T15:22:40.340Z,1.30
2023-04-22T15:25:08.634Z,1.30
2023-04-22T15:27:35.658Z,1.60
2023-04-22T15:30:03.702Z,1.50
2023-04-22T15:32:30.718Z,1.70
2023-04-22T15:34:57.440Z,1.20
2023-04-22T15:37:24.100Z,1.80
2023-04-22T15:39:50.802Z,1.90
2023-04-22T15:42:17.358Z,1.50
2023-04-22T15:44:44.202Z,1.50
2023-04-22T15:47:10.910Z,1.30
2023-04-22T15:49:38.044Z,1.20
2023-04-22T15:52:04.924Z,1.10
2023-04-22T15:54:31.568Z,1.00
2023-04-22T15:56:58.191Z,1.00
2023-04-22T15:59:24.858Z,1.20
2023-04-22T16:01:51.599Z,1.30
2023-04-22T16:04:18.709Z,1.40
2023-04-22T16:06:45.809Z,1.80
2023-04-22T16:09:12.465Z,1.60
2023-04-22T16:11:39.188Z,1.70
2023-04-22T16:14:05.879Z,1.50
2023-04-22T16:16:33.201Z,1.70
2023-04-22T16:18:59.813Z,1.40
2023-04-22T16:21:28.011Z,1.40
2023-04-22T16:23:54.644Z,1.40
2023-04-22T16:26:21.297Z,1.70
2023-04-22T16:28:48.009Z,1.40
2023-04-22T16:31:17.347Z,2.00
2023-04-22T16:33:44.920Z,2.10
2023-04-22T16:36:11.526Z,1.80
2023-04-22T16:38:38.343Z,2.10
2023-04-22T16:41:05.037Z,2.00
2023-04-22T16:43:32.155Z,2.30
2023-04-22T16:45:58.887Z,2.20
2023-04-22T16:48:25.658Z,2.00
2023-04-22T16:50:52.708Z,2.30
2023-04-22T16:53:19.583Z,2.30
2023-04-22T16:55:46.222Z,2.20
2023-04-22T16:58:13.020Z,2.20
2023-04-22T17:00:39.902Z,2.40
2023-04-22T17:03:06.995Z,2.40
2023-04-22T17:05:34.861Z,2.10
2023-04-22T17:08:01.713Z,2.20
2023-04-22T17:10:28.843Z,2.40
2023-04-22T17:12:55.549Z,2.40
2023-04-22T17:15:22.445Z,2.20
2023-04-22T17:17:49.133Z,1.80
2023-04-22T17:20:16.029Z,1.80
2023-04-22T17:22:42.655Z,2.00
2023-04-22T17:25:09.217Z,1.90
2023-04-22T17:27:36.424Z,1.70
2023-04-22T17:30:03.608Z,1.50
2023-04-22T17:32:30.486Z,2.40
2023-04-22T17:34:57.127Z,2.10
2023-04-22T17:37:23.748Z,2.30
2023-04-22T17:39:50.361Z,2.00
2023-04-22T17:42:17.895Z,2.20
2023-04-22T17:44:44.812Z,2.00
2023-04-22T17:47:11.474Z,2.10
2023-04-22T17:49:38.076Z,2.50
2023-04-22T17:52:04.912Z,2.00
2023-04-22T17:54:31.502Z,2.50
2023-04-22T17:56:58.162Z,2.30
2023-04-22T17:59:24.808Z,2.60
2023-04-22T18:01:51.493Z,2.30
2023-04-22T18:04:18.168Z,2.50
2023-04-22T18:06:45.152Z,2.80
2023-04-22T18:09:12.795Z,2.30
2023-04-22T18:11:40.546Z,2.60
2023-04-22T18:14:07.627Z,2.90
2023-04-22T18:16:34.308Z,2.70
2023-04-22T18:19:03.422Z,2.80
2023-04-22T18:21:30.891Z,2.80
2023-04-22T18:23:57.995Z,3.00
2023-04-22T18:26:24.761Z,3.10
2023-04-22T18:28:51.891Z,3.20
2023-04-22T18:31:19.815Z,2.60
2023-04-22T18:33:46.411Z,2.90
2023-04-22T18:36:13.056Z,3.10
2023-04-22T18:38:41.326Z,3.20
2023-04-22T18:41:10.400Z,3.30
2023-04-22T18:43:37.059Z,3.10
2023-04-22T18:46:03.758Z,3.40
2023-04-22T18:48:30.875Z,3.80
2023-04-22T18:50:57.508Z,3.50
2023-04-22T18:53:25.362Z,3.90
2023-04-22T18:55:52.382Z,3.50
2023-04-22T18:58:22.589Z,3.50
2023-04-22T19:00:49.878Z,3.70
2023-04-22T19:05:43.987Z,3.10
2023-04-22T19:08:11.084Z,3.60
2023-04-22T19:10:38.373Z,3.20
2023-04-22T19:13:05.455Z,3.70
2023-04-22T19:15:33.926Z,3.70
2023-04-22T19:18:01.731Z,3.20
2023-04-22T19:20:28.833Z,3.50
2023-04-22T19:22:55.744Z,3.10
2023-04-22T19:25:23.905Z,3.30
2023-04-22T19:27:50.637Z,3.30
2023-04-22T19:30:17.251Z,3.10
2023-04-22T19:32:43.990Z,3.10
2023-04-22T19:35:15.552Z,3.10
2023-04-22T19:37:42.634Z,3.30
2023-04-22T19:40:09.644Z,3.50
2023-04-22T19:42:37.117Z,3.30
2023-04-22T19:45:04.102Z,3.40
2023-04-22T19:47:31.242Z,4.00
2023-04-22T19:49:58.346Z,4.10
2023-04-22T19:52:25.075Z,4.00
2023-04-22T19:54:55.516Z,4.60
2023-04-22T19:57:22.322Z,4.40
2023-04-22T19:59:49.006Z,4.40
2023-04-22T20:02:15.820Z,4.30
2023-04-22T20:04:43.610Z,4.50
2023-04-22T20:07:11.370Z,4.60
2023-04-22T20:09:38.200Z,4.20
2023-04-22T20:12:05.717Z,4.30
2023-04-22T20:14:32.354Z,4.80
2023-04-22T20:16:59.174Z,4.30
2023-04-22T20:19:27.185Z,3.90
2023-04-22T20:21:56.095Z,3.90
2023-04-22T20:24:22.701Z,3.90
2023-04-22T20:26:49.417Z,3.80
2023-04-22T20:29:19.253Z,3.60
2023-04-22T20:31:46.693Z,4.00
2023-04-22T20:34:13.571Z,4.00
2023-04-22T20:36:40.166Z,4.00
2023-04-22T20:39:08.479Z,3.90
2023-04-22T20:41:36.759Z,3.80
2023-04-22T20:44:03.674Z,4.60
2023-04-22T20:46:30.830Z,4.10
2023-04-22T20:48:57.582Z,3.60
2023-04-22T20:51:25.187Z,3.90
2023-04-22T20:53:51.900Z,3.90
2023-04-22T20:56:19.093Z,3.90
2023-04-22T20:58:45.715Z,4.30
2023-04-22T21:01:15.675Z,4.00
2023-04-22T21:03:42.582Z,4.30
2023-04-22T21:06:09.501Z,3.90
2023-04-22T21:08:38.610Z,4.50
2023-04-22T21:11:05.481Z,4.60
2023-04-22T21:13:32.317Z,4.40
2023-04-22T21:16:01.486Z,4.20
2023-04-22T21:18:29.033Z,3.80
2023-04-22T21:20:55.979Z,4.30
2023-04-22T21:23:23.742Z,4.00
2023-04-22T21:25:51.048Z,4.20
2023-04-22T21:28:19.296Z,4.00
2023-04-22T21:30:46.409Z,4.30
2023-04-22T21:33:13.002Z,4.10
2023-04-22T21:35:40.128Z,4.50
2023-04-22T21:38:07.483Z,4.70
2023-04-22T21:40:34.734Z,4.60
2023-04-22T21:43:01.563Z,4.70
2023-04-22T21:45:28.298Z,4.60
2023-04-22T21:47:55.003Z,4.40
2023-04-22T21:50:22.492Z,4.40
2023-04-22T21:52:49.207Z,4.90
2023-04-22T21:55:16.430Z,4.20
2023-04-22T21:57:43.148Z,4.60
2023-04-22T22:00:19.475Z,4.40
2023-04-22T22:02:47.621Z,4.70
2023-04-22T22:05:14.853Z,4.30
2023-04-22T22:07:42.053Z,4.40
2023-04-22T22:10:11.047Z,4.40
2023-04-22T22:12:37.685Z,4.70
2023-04-22T22:15:10.984Z,4.40
2023-04-22T22:17:39.274Z,4.40
2023-04-22T22:20:10.628Z,4.30
2023-04-22T22:22:41.103Z,4.10
2023-04-22T22:25:08.944Z,4.30
2023-04-22T22:27:35.920Z,4.10
2023-04-22T22:30:03.600Z,4.70
2023-04-22T22:32:31.944Z,4.80
2023-04-22T22:34:58.664Z,4.50
2023-04-22T22:37:25.325Z,4.40
2023-04-22T22:39:51.889Z,4.80
2023-04-22T22:42:18.490Z,5.00
2023-04-22T22:44:45.255Z,4.60
2023-04-22T22:47:11.976Z,4.50
2023-04-22T22:49:38.613Z,4.70
2023-04-22T22:52:05.958Z,4.50
2023-04-22T22:54:35.737Z,4.60
2023-04-22T22:57:02.579Z,4.50
2023-04-22T22:59:29.202Z,4.20
2023-04-22T23:01:57.520Z,4.10
2023-04-22T23:04:24.661Z,4.20
2023-04-22T23:06:51.682Z,4.10
2023-04-22T23:09:18.513Z,3.60
2023-04-22T23:11:47.680Z,4.20
2023-04-22T23:14:17.361Z,3.60
2023-04-22T23:16:45.415Z,3.80
2023-04-22T23:19:12.642Z,3.90
2023-04-22T23:21:42.980Z,3.50
2023-04-22T23:24:10.428Z,3.40
2023-04-22T23:26:37.540Z,3.60
2023-04-22T23:29:04.512Z,3.60
2023-04-22T23:31:32.361Z,3.80
2023-04-22T23:34:03.881Z,3.10
2023-04-22T23:44:32.278Z,3.00
2023-04-22T23:46:59.022Z,2.80
2023-04-22T23:49:25.617Z,3.10
2023-04-22T23:51:53.142Z,3.00
2023-04-22T23:54:20.529Z,3.10
2023-04-22T23:56:47.447Z,2.80
2023-04-22T23:59:14.349Z,2.90
